Terminal Aerodrome Forecast
Issued by NWS

Home | Current Version | Previous Version | Text Only | Print | Product List | Glossary Off
Versions: 1 2 3 4 5 6 7 8 9 10 11 12 13 14 15 16 17 18 19 20 21 22

000
FTUS43 KMPX 201100
TAFAXN
TAF
KAXN 201120Z 2012/2112 12003KT 6SM BR SCT003 SCT250
      TEMPO 2012/2013 5SM BR
     FM201300 14007KT P6SM SCT250
     FM210000 12010KT P6SM BKN070
     FM210400 14007KT 6SM BR VCSH SCT006 OVC050
      TEMPO 2105/2108 4SM TSRA OVC050CB=

USA.gov is the U.S. government's official web portal to all federal, state and local government web resources and services.